sensor_id;sensor_type;location;lat;lon;timestamp;temperature;humidity
51476;DHT22;37554;50.362;7.568;2023-11-18T00:00:29;13.00;62.70
51476;DHT22;37554;50.362;7.568;2023-11-18T00:02:54;13.00;62.60
51476;DHT22;37554;50.362;7.568;2023-11-18T00:05:20;13.00;62.70
51476;DHT22;37554;50.362;7.568;2023-11-18T00:07:46;13.00;62.80
51476;DHT22;37554;50.362;7.568;2023-11-18T00:10:12;13.00;62.80
51476;DHT22;37554;50.362;7.568;2023-11-18T00:12:38;12.90;62.80
51476;DHT22;37554;50.362;7.568;2023-11-18T00:15:08;13.00;62.90
51476;DHT22;37554;50.362;7.568;2023-11-18T00:17:37;13.00;62.90
51476;DHT22;37554;50.362;7.568;2023-11-18T00:20:03;12.90;62.90
51476;DHT22;37554;50.362;7.568;2023-11-18T00:22:37;12.90;63.00
51476;DHT22;37554;50.362;7.568;2023-11-18T00:25:03;12.90;63.70
51476;DHT22;37554;50.362;7.568;2023-11-18T00:27:35;12.90;63.00
51476;DHT22;37554;50.362;7.568;2023-11-18T00:30:03;12.90;63.00
51476;DHT22;37554;50.362;7.568;2023-11-18T00:32:31;12.90;63.10
51476;DHT22;37554;50.362;7.568;2023-11-18T00:34:57;12.90;63.10
51476;DHT22;37554;50.362;7.568;2023-11-18T00:37:22;12.90;63.10
51476;DHT22;37554;50.362;7.568;2023-11-18T00:39:48;12.90;63.20
51476;DHT22;37554;50.362;7.568;2023-11-18T00:42:13;12.90;63.20
51476;DHT22;37554;50.362;7.568;2023-11-18T00:44:39;12.90;63.30
51476;DHT22;37554;50.362;7.568;2023-11-18T00:47:06;12.90;63.30
51476;DHT22;37554;50.362;7.568;2023-11-18T00:49:32;12.90;63.30
51476;DHT22;37554;50.362;7.568;2023-11-18T00:51:59;12.90;63.30
51476;DHT22;37554;50.362;7.568;2023-11-18T00:54:25;12.90;63.40
51476;DHT22;37554;50.362;7.568;2023-11-18T00:56:50;12.90;63.40
51476;DHT22;37554;50.362;7.568;2023-11-18T00:59:16;12.90;63.40
51476;DHT22;37554;50.362;7.568;2023-11-18T01:01:41;12.90;63.50
51476;DHT22;37554;50.362;7.568;2023-11-18T01:04:07;12.90;63.50
51476;DHT22;37554;50.362;7.568;2023-11-18T01:06:34;12.90;63.50
51476;DHT22;37554;50.362;7.568;2023-11-18T01:08:59;12.90;63.50
51476;DHT22;37554;50.362;7.568;2023-11-18T01:11:26;12.90;63.50
51476;DHT22;37554;50.362;7.568;2023-11-18T01:13:51;12.90;63.50
51476;DHT22;37554;50.362;7.568;2023-11-18T01:16:20;12.90;63.50
51476;DHT22;37554;50.362;7.568;2023-11-18T01:18:46;12.90;63.50
51476;DHT22;37554;50.362;7.568;2023-11-18T01:21:11;12.90;63.50
51476;DHT22;37554;50.362;7.568;2023-11-18T01:23:38;12.90;63.60
51476;DHT22;37554;50.362;7.568;2023-11-18T01:26:07;12.90;64.20
51476;DHT22;37554;50.362;7.568;2023-11-18T01:28:36;12.90;63.50
51476;DHT22;37554;50.362;7.568;2023-11-18T01:31:04;12.90;63.50
51476;DHT22;37554;50.362;7.568;2023-11-18T01:33:31;12.90;63.50
51476;DHT22;37554;50.362;7.568;2023-11-18T01:35:58;12.90;63.50
51476;DHT22;37554;50.362;7.568;2023-11-18T01:38:24;12.90;63.50
51476;DHT22;37554;50.362;7.568;2023-11-18T01:40:51;12.90;63.50
51476;DHT22;37554;50.362;7.568;2023-11-18T01:43:18;12.90;63.50
51476;DHT22;37554;50.362;7.568;2023-11-18T01:45:44;12.90;63.50
51476;DHT22;37554;50.362;7.568;2023-11-18T01:48:10;12.90;63.50
51476;DHT22;37554;50.362;7.568;2023-11-18T01:50:37;12.90;63.50
51476;DHT22;37554;50.362;7.568;2023-11-18T01:53:04;12.90;63.50
51476;DHT22;37554;50.362;7.568;2023-11-18T01:55:29;12.90;63.50
51476;DHT22;37554;50.362;7.568;2023-11-18T01:57:55;12.90;63.50
51476;DHT22;37554;50.362;7.568;2023-11-18T02:00:23;12.90;63.50
51476;DHT22;37554;50.362;7.568;2023-11-18T02:02:49;12.90;63.50
51476;DHT22;37554;50.362;7.568;2023-11-18T02:05:15;12.90;63.50
51476;DHT22;37554;50.362;7.568;2023-11-18T02:07:42;12.90;63.50
51476;DHT22;37554;50.362;7.568;2023-11-18T02:10:08;12.90;63.50
51476;DHT22;37554;50.362;7.568;2023-11-18T02:12:54;12.90;63.50
51476;DHT22;37554;50.362;7.568;2023-11-18T02:15:22;12.90;63.50
51476;DHT22;37554;50.362;7.568;2023-11-18T02:17:50;12.90;63.40
51476;DHT22;37554;50.362;7.568;2023-11-18T02:20:18;12.90;63.50
51476;DHT22;37554;50.362;7.568;2023-11-18T02:22:47;12.90;63.40
51476;DHT22;37554;50.362;7.568;2023-11-18T02:25:16;12.90;64.10
51476;DHT22;37554;50.362;7.568;2023-11-18T02:27:43;12.90;63.40
51476;DHT22;37554;50.362;7.568;2023-11-18T02:30:09;12.90;63.50
51476;DHT22;37554;50.362;7.568;2023-11-18T02:35:27;12.90;63.50
51476;DHT22;37554;50.362;7.568;2023-11-18T02:37:54;12.90;63.50
51476;DHT22;37554;50.362;7.568;2023-11-18T02:40:26;12.90;64.10
51476;DHT22;37554;50.362;7.568;2023-11-18T02:42:55;12.90;63.50
51476;DHT22;37554;50.362;7.568;2023-11-18T02:45:22;12.90;63.50
51476;DHT22;37554;50.362;7.568;2023-11-18T02:47:48;12.90;63.50
51476;DHT22;37554;50.362;7.568;2023-11-18T02:50:14;12.90;63.50
51476;DHT22;37554;50.362;7.568;2023-11-18T02:52:41;12.90;63.50
51476;DHT22;37554;50.362;7.568;2023-11-18T02:55:08;12.90;63.50
51476;DHT22;37554;50.362;7.568;2023-11-18T02:57:34;12.90;63.50
51476;DHT22;37554;50.362;7.568;2023-11-18T03:00:00;12.90;63.50
51476;DHT22;37554;50.362;7.568;2023-11-18T03:02:29;12.90;63.50
51476;DHT22;37554;50.362;7.568;2023-11-18T03:04:59;12.80;63.40
51476;DHT22;37554;50.362;7.568;2023-11-18T03:07:25;12.80;63.40
51476;DHT22;37554;50.362;7.568;2023-11-18T03:09:52;12.80;63.40
51476;DHT22;37554;50.362;7.568;2023-11-18T03:12:18;12.80;63.40
51476;DHT22;37554;50.362;7.568;2023-11-18T03:14:43;12.80;63.40
51476;DHT22;37554;50.362;7.568;2023-11-18T03:17:10;12.80;64.00
51476;DHT22;37554;50.362;7.568;2023-11-18T03:19:36;12.80;63.40
51476;DHT22;37554;50.362;7.568;2023-11-18T03:22:02;12.80;63.40
51476;DHT22;37554;50.362;7.568;2023-11-18T03:24:28;12.80;63.40
51476;DHT22;37554;50.362;7.568;2023-11-18T03:26:57;12.80;63.40
51476;DHT22;37554;50.362;7.568;2023-11-18T03:29:23;12.80;63.40
51476;DHT22;37554;50.362;7.568;2023-11-18T03:31:49;12.80;63.40
51476;DHT22;37554;50.362;7.568;2023-11-18T03:34:19;12.80;63.40
51476;DHT22;37554;50.362;7.568;2023-11-18T03:36:48;12.80;63.40
51476;DHT22;37554;50.362;7.568;2023-11-18T03:39:14;12.80;63.40
51476;DHT22;37554;50.362;7.568;2023-11-18T03:41:40;12.80;63.40
51476;DHT22;37554;50.362;7.568;2023-11-18T03:44:12;12.80;63.40
51476;DHT22;37554;50.362;7.568;2023-11-18T03:46:37;12.80;63.30
51476;DHT22;37554;50.362;7.568;2023-11-18T03:49:03;12.80;63.30
51476;DHT22;37554;50.362;7.568;2023-11-18T03:51:29;12.80;63.30
51476;DHT22;37554;50.362;7.568;2023-11-18T03:53:55;12.80;63.40
51476;DHT22;37554;50.362;7.568;2023-11-18T03:56:21;12.80;63.40
51476;DHT22;37554;50.362;7.568;2023-11-18T03:58:47;12.80;63.40
51476;DHT22;37554;50.362;7.568;2023-11-18T04:01:23;12.80;63.40
51476;DHT22;37554;50.362;7.568;2023-11-18T04:03:52;12.80;63.40
51476;DHT22;37554;50.362;7.568;2023-11-18T04:06:17;12.80;63.40
51476;DHT22;37554;50.362;7.568;2023-11-18T04:08:46;12.80;63.40
51476;DHT22;37554;50.362;7.568;2023-11-18T04:11:12;12.80;63.30
51476;DHT22;37554;50.362;7.568;2023-11-18T04:13:43;12.80;63.40
51476;DHT22;37554;50.362;7.568;2023-11-18T04:16:15;12.80;63.30
51476;DHT22;37554;50.362;7.568;2023-11-18T04:18:42;12.80;63.30
51476;DHT22;37554;50.362;7.568;2023-11-18T04:21:09;12.80;63.30
51476;DHT22;37554;50.362;7.568;2023-11-18T04:23:42;12.80;63.30
51476;DHT22;37554;50.362;7.568;2023-11-18T04:26:08;12.80;63.30
51476;DHT22;37554;50.362;7.568;2023-11-18T04:28:35;12.80;63.30
51476;DHT22;37554;50.362;7.568;2023-11-18T04:31:00;12.80;63.30
51476;DHT22;37554;50.362;7.568;2023-11-18T04:33:26;12.80;63.30
51476;DHT22;37554;50.362;7.568;2023-11-18T04:35:52;12.80;63.30
51476;DHT22;37554;50.362;7.568;2023-11-18T04:38:18;12.80;63.30
51476;DHT22;37554;50.362;7.568;2023-11-18T04:40:44;12.80;63.20
51476;DHT22;37554;50.362;7.568;2023-11-18T04:43:11;12.80;63.30
51476;DHT22;37554;50.362;7.568;2023-11-18T04:45:37;12.70;63.20
51476;DHT22;37554;50.362;7.568;2023-11-18T04:48:04;12.70;63.20
51476;DHT22;37554;50.362;7.568;2023-11-18T04:50:30;12.70;63.20
51476;DHT22;37554;50.362;7.568;2023-11-18T04:52:58;12.70;63.20
51476;DHT22;37554;50.362;7.568;2023-11-18T04:55:24;12.70;63.20
51476;DHT22;37554;50.362;7.568;2023-11-18T04:57:52;12.70;63.20
51476;DHT22;37554;50.362;7.568;2023-11-18T05:00:18;12.70;63.20
51476;DHT22;37554;50.362;7.568;2023-11-18T05:02:45;12.70;63.10
51476;DHT22;37554;50.362;7.568;2023-11-18T05:05:14;12.70;63.10
51476;DHT22;37554;50.362;7.568;2023-11-18T05:07:41;12.70;63.20
51476;DHT22;37554;50.362;7.568;2023-11-18T05:10:08;12.70;63.10
51476;DHT22;37554;50.362;7.568;2023-11-18T05:12:33;12.70;63.20
51476;DHT22;37554;50.362;7.568;2023-11-18T05:14:59;12.60;63.10
51476;DHT22;37554;50.362;7.568;2023-11-18T05:17:26;12.60;63.10
51476;DHT22;37554;50.362;7.568;2023-11-18T05:19:55;12.60;63.10
51476;DHT22;37554;50.362;7.568;2023-11-18T05:22:21;12.60;63.00
51476;DHT22;37554;50.362;7.568;2023-11-18T05:24:47;12.60;63.00
51476;DHT22;37554;50.362;7.568;2023-11-18T05:27:13;12.60;63.00
51476;DHT22;37554;50.362;7.568;2023-11-18T05:29:39;12.60;63.10
51476;DHT22;37554;50.362;7.568;2023-11-18T05:32:07;12.60;63.20
51476;DHT22;37554;50.362;7.568;2023-11-18T05:34:33;12.60;63.20
51476;DHT22;37554;50.362;7.568;2023-11-18T05:37:00;12.60;63.20
51476;DHT22;37554;50.362;7.568;2023-11-18T05:39:26;12.60;63.10
51476;DHT22;37554;50.362;7.568;2023-11-18T05:41:53;12.70;63.20
51476;DHT22;37554;50.362;7.568;2023-11-18T05:44:21;12.70;63.50
51476;DHT22;37554;50.362;7.568;2023-11-18T05:46:58;12.70;63.30
51476;DHT22;37554;50.362;7.568;2023-11-18T05:49:24;12.80;64.00
51476;DHT22;37554;50.362;7.568;2023-11-18T05:51:53;12.80;63.20
51476;DHT22;37554;50.362;7.568;2023-11-18T05:54:18;12.80;63.10
51476;DHT22;37554;50.362;7.568;2023-11-18T05:56:44;12.90;63.10
51476;DHT22;37554;50.362;7.568;2023-11-18T05:59:10;12.90;63.00
51476;DHT22;37554;50.362;7.568;2023-11-18T06:01:36;12.90;63.00
51476;DHT22;37554;50.362;7.568;2023-11-18T06:04:03;12.90;62.90
51476;DHT22;37554;50.362;7.568;2023-11-18T06:06:29;12.90;62.90
51476;DHT22;37554;50.362;7.568;2023-11-18T06:08:56;12.90;62.80
51476;DHT22;37554;50.362;7.568;2023-11-18T06:11:24;12.90;62.80
51476;DHT22;37554;50.362;7.568;2023-11-18T06:13:51;12.90;62.90
51476;DHT22;37554;50.362;7.568;2023-11-18T06:16:21;12.80;62.80
51476;DHT22;37554;50.362;7.568;2023-11-18T06:18:49;12.80;62.80
51476;DHT22;37554;50.362;7.568;2023-11-18T06:21:16;12.80;62.80
51476;DHT22;37554;50.362;7.568;2023-11-18T06:23:45;12.80;62.80
51476;DHT22;37554;50.362;7.568;2023-11-18T06:26:11;12.80;62.80
51476;DHT22;37554;50.362;7.568;2023-11-18T06:28:52;12.80;62.80
51476;DHT22;37554;50.362;7.568;2023-11-18T06:31:21;12.80;62.80
51476;DHT22;37554;50.362;7.568;2023-11-18T06:33:49;12.80;62.90
51476;DHT22;37554;50.362;7.568;2023-11-18T06:38:42;12.70;62.80
51476;DHT22;37554;50.362;7.568;2023-11-18T06:41:09;12.70;62.90
51476;DHT22;37554;50.362;7.568;2023-11-18T06:43:38;12.70;63.60
51476;DHT22;37554;50.362;7.568;2023-11-18T06:46:24;12.70;63.00
51476;DHT22;37554;50.362;7.568;2023-11-18T06:48:50;12.80;63.60
51476;DHT22;37554;50.362;7.568;2023-11-18T06:51:22;12.80;64.10
51476;DHT22;37554;50.362;7.568;2023-11-18T06:53:51;12.80;64.20
51476;DHT22;37554;50.362;7.568;2023-11-18T06:56:17;12.80;64.20
51476;DHT22;37554;50.362;7.568;2023-11-18T06:58:43;12.80;64.20
51476;DHT22;37554;50.362;7.568;2023-11-18T07:01:12;12.80;64.20
51476;DHT22;37554;50.362;7.568;2023-11-18T07:03:39;12.80;64.20
51476;DHT22;37554;50.362;7.568;2023-11-18T07:06:06;12.80;64.10
51476;DHT22;37554;50.362;7.568;2023-11-18T07:08:32;12.80;64.10
51476;DHT22;37554;50.362;7.568;2023-11-18T07:11:00;12.80;64.00
51476;DHT22;37554;50.362;7.568;2023-11-18T07:13:27;12.80;64.00
51476;DHT22;37554;50.362;7.568;2023-11-18T07:15:53;12.80;63.90
51476;DHT22;37554;50.362;7.568;2023-11-18T07:18:22;12.80;63.80
51476;DHT22;37554;50.362;7.568;2023-11-18T07:20:48;12.80;63.70
51476;DHT22;37554;50.362;7.568;2023-11-18T07:23:14;12.80;63.70
51476;DHT22;37554;50.362;7.568;2023-11-18T07:25:43;12.80;63.60
51476;DHT22;37554;50.362;7.568;2023-11-18T07:28:10;12.90;63.70
51476;DHT22;37554;50.362;7.568;2023-11-18T07:30:36;12.90;63.70
51476;DHT22;37554;50.362;7.568;2023-11-18T07:33:05;12.90;63.60
51476;DHT22;37554;50.362;7.568;2023-11-18T07:35:30;12.90;63.60
51476;DHT22;37554;50.362;7.568;2023-11-18T07:37:56;12.90;63.60
51476;DHT22;37554;50.362;7.568;2023-11-18T07:40:24;12.90;63.50
51476;DHT22;37554;50.362;7.568;2023-11-18T07:42:57;12.90;63.50
51476;DHT22;37554;50.362;7.568;2023-11-18T07:45:23;12.90;63.50
51476;DHT22;37554;50.362;7.568;2023-11-18T07:47:52;12.90;63.40
51476;DHT22;37554;50.362;7.568;2023-11-18T07:50:18;12.90;63.40
51476;DHT22;37554;50.362;7.568;2023-11-18T07:52:46;12.90;63.40
51476;DHT22;37554;50.362;7.568;2023-11-18T07:55:13;12.90;63.40
51476;DHT22;37554;50.362;7.568;2023-11-18T07:57:40;12.90;63.50
51476;DHT22;37554;50.362;7.568;2023-11-18T08:00:07;12.90;63.40
51476;DHT22;37554;50.362;7.568;2023-11-18T08:02:36;12.90;63.40
51476;DHT22;37554;50.362;7.568;2023-11-18T08:05:03;13.00;63.40
51476;DHT22;37554;50.362;7.568;2023-11-18T08:07:29;13.00;63.40
51476;DHT22;37554;50.362;7.568;2023-11-18T08:09:54;13.00;63.30
51476;DHT22;37554;50.362;7.568;2023-11-18T08:12:20;13.00;63.30
51476;DHT22;37554;50.362;7.568;2023-11-18T08:14:46;13.00;63.30
51476;DHT22;37554;50.362;7.568;2023-11-18T08:17:12;13.00;63.20
51476;DHT22;37554;50.362;7.568;2023-11-18T08:19:39;13.00;63.20
51476;DHT22;37554;50.362;7.568;2023-11-18T08:22:04;13.10;63.20
51476;DHT22;37554;50.362;7.568;2023-11-18T08:24:31;13.10;63.20
51476;DHT22;37554;50.362;7.568;2023-11-18T08:26:59;13.10;63.10
51476;DHT22;37554;50.362;7.568;2023-11-18T08:29:24;13.20;63.00
51476;DHT22;37554;50.362;7.568;2023-11-18T08:31:53;13.10;63.50
51476;DHT22;37554;50.362;7.568;2023-11-18T08:34:19;13.20;62.80
51476;DHT22;37554;50.362;7.568;2023-11-18T08:36:44;13.30;62.70
51476;DHT22;37554;50.362;7.568;2023-11-18T08:39:10;13.30;62.70
51476;DHT22;37554;50.362;7.568;2023-11-18T08:41:36;13.30;62.70
51476;DHT22;37554;50.362;7.568;2023-11-18T08:44:03;13.30;62.60
51476;DHT22;37554;50.362;7.568;2023-11-18T08:46:29;13.40;62.60
51476;DHT22;37554;50.362;7.568;2023-11-18T08:48:54;13.40;62.60
51476;DHT22;37554;50.362;7.568;2023-11-18T08:51:21;13.40;63.20
51476;DHT22;37554;50.362;7.568;2023-11-18T08:53:51;13.40;62.50
51476;DHT22;37554;50.362;7.568;2023-11-18T08:56:20;13.40;62.50
51476;DHT22;37554;50.362;7.568;2023-11-18T08:58:50;13.40;62.60
51476;DHT22;37554;50.362;7.568;2023-11-18T09:01:17;13.50;62.60
51476;DHT22;37554;50.362;7.568;2023-11-18T09:03:43;13.50;62.60
51476;DHT22;37554;50.362;7.568;2023-11-18T09:06:10;13.50;62.60
51476;DHT22;37554;50.362;7.568;2023-11-18T09:08:51;13.50;62.60
51476;DHT22;37554;50.362;7.568;2023-11-18T09:11:24;13.50;62.50
51476;DHT22;37554;50.362;7.568;2023-11-18T09:13:54;13.50;63.20
51476;DHT22;37554;50.362;7.568;2023-11-18T09:16:22;13.50;62.50
51476;DHT22;37554;50.362;7.568;2023-11-18T09:18:50;13.50;62.50
51476;DHT22;37554;50.362;7.568;2023-11-18T09:21:17;13.50;62.50
51476;DHT22;37554;50.362;7.568;2023-11-18T09:23:50;13.50;62.50
51476;DHT22;37554;50.362;7.568;2023-11-18T09:26:16;13.50;62.50
51476;DHT22;37554;50.362;7.568;2023-11-18T09:28:42;13.60;62.60
51476;DHT22;37554;50.362;7.568;2023-11-18T09:31:09;13.60;62.60
51476;DHT22;37554;50.362;7.568;2023-11-18T09:33:40;13.60;62.60
51476;DHT22;37554;50.362;7.568;2023-11-18T09:36:11;13.60;62.60
51476;DHT22;37554;50.362;7.568;2023-11-18T09:38:39;13.60;62.70
51476;DHT22;37554;50.362;7.568;2023-11-18T09:41:08;13.60;62.70
51476;DHT22;37554;50.362;7.568;2023-11-18T09:43:41;13.60;62.70
51476;DHT22;37554;50.362;7.568;2023-11-18T09:46:16;13.60;62.70
51476;DHT22;37554;50.362;7.568;2023-11-18T09:48:45;13.70;62.60
51476;DHT22;37554;50.362;7.568;2023-11-18T09:54:12;13.70;62.50
51476;DHT22;37554;50.362;7.568;2023-11-18T10:01:53;13.70;62.50
51476;DHT22;37554;50.362;7.568;2023-11-18T10:04:23;13.70;62.60
51476;DHT22;37554;50.362;7.568;2023-11-18T10:06:53;13.70;62.50
51476;DHT22;37554;50.362;7.568;2023-11-18T10:09:20;13.70;62.60
51476;DHT22;37554;50.362;7.568;2023-11-18T10:11:54;13.70;62.50
51476;DHT22;37554;50.362;7.568;2023-11-18T10:14:33;13.80;62.60
51476;DHT22;37554;50.362;7.568;2023-11-18T10:17:06;13.80;62.60
51476;DHT22;37554;50.362;7.568;2023-11-18T10:22:28;13.80;62.80
51476;DHT22;37554;50.362;7.568;2023-11-18T10:24:56;13.80;62.80
51476;DHT22;37554;50.362;7.568;2023-11-18T10:27:26;13.80;62.80
51476;DHT22;37554;50.362;7.568;2023-11-18T10:30:01;13.80;62.80
51476;DHT22;37554;50.362;7.568;2023-11-18T10:32:28;13.80;62.80
51476;DHT22;37554;50.362;7.568;2023-11-18T10:34:57;13.80;62.80
51476;DHT22;37554;50.362;7.568;2023-11-18T10:37:24;13.80;62.90
51476;DHT22;37554;50.362;7.568;2023-11-18T10:39:50;13.80;63.00
51476;DHT22;37554;50.362;7.568;2023-11-18T10:42:17;13.80;63.00
51476;DHT22;37554;50.362;7.568;2023-11-18T10:44:59;13.80;63.00
51476;DHT22;37554;50.362;7.568;2023-11-18T10:47:28;13.80;63.00
51476;DHT22;37554;50.362;7.568;2023-11-18T10:49:54;13.80;63.00
51476;DHT22;37554;50.362;7.568;2023-11-18T10:52:22;13.80;63.00
51476;DHT22;37554;50.362;7.568;2023-11-18T10:54:50;13.90;63.30
51476;DHT22;37554;50.362;7.568;2023-11-18T10:57:23;13.90;63.80
51476;DHT22;37554;50.362;7.568;2023-11-18T11:00:02;13.90;63.90
51476;DHT22;37554;50.362;7.568;2023-11-18T11:02:32;13.90;64.00
51476;DHT22;37554;50.362;7.568;2023-11-18T11:05:03;13.90;63.90
51476;DHT22;37554;50.362;7.568;2023-11-18T11:07:31;13.90;64.00
51476;DHT22;37554;50.362;7.568;2023-11-18T11:10:00;13.90;64.00
51476;DHT22;37554;50.362;7.568;2023-11-18T11:12:33;13.90;64.70
51476;DHT22;37554;50.362;7.568;2023-11-18T11:15:12;13.90;64.00
51476;DHT22;37554;50.362;7.568;2023-11-18T11:17:51;13.90;63.90
51476;DHT22;37554;50.362;7.568;2023-11-18T11:20:22;13.90;63.90
51476;DHT22;37554;50.362;7.568;2023-11-18T11:23:13;13.90;63.90
51476;DHT22;37554;50.362;7.568;2023-11-18T11:31:45;13.90;64.00
51476;DHT22;37554;50.362;7.568;2023-11-18T11:34:20;13.90;64.80
51476;DHT22;37554;50.362;7.568;2023-11-18T11:36:50;13.90;64.10
51476;DHT22;37554;50.362;7.568;2023-11-18T11:39:19;13.90;64.10
51476;DHT22;37554;50.362;7.568;2023-11-18T11:41:52;13.90;64.20
51476;DHT22;37554;50.362;7.568;2023-11-18T11:44:25;13.90;64.30
51476;DHT22;37554;50.362;7.568;2023-11-18T11:46:58;13.90;64.30
51476;DHT22;37554;50.362;7.568;2023-11-18T11:49:27;13.80;64.30
51476;DHT22;37554;50.362;7.568;2023-11-18T11:52:05;13.80;64.40
51476;DHT22;37554;50.362;7.568;2023-11-18T11:54:42;13.80;64.50
51476;DHT22;37554;50.362;7.568;2023-11-18T11:57:11;13.90;64.60
51476;DHT22;37554;50.362;7.568;2023-11-18T12:02:13;13.90;64.60
51476;DHT22;37554;50.362;7.568;2023-11-18T12:04:48;13.90;64.60
51476;DHT22;37554;50.362;7.568;2023-11-18T12:07:22;13.90;64.60
51476;DHT22;37554;50.362;7.568;2023-11-18T12:09:59;13.90;64.50
51476;DHT22;37554;50.362;7.568;2023-11-18T12:12:26;14.00;64.60
51476;DHT22;37554;50.362;7.568;2023-11-18T12:14:54;13.90;64.60
51476;DHT22;37554;50.362;7.568;2023-11-18T12:20:43;14.00;64.90
51476;DHT22;37554;50.362;7.568;2023-11-18T12:23:23;14.00;64.90
51476;DHT22;37554;50.362;7.568;2023-11-18T12:25:50;14.00;64.80
51476;DHT22;37554;50.362;7.568;2023-11-18T12:28:32;14.00;64.80
51476;DHT22;37554;50.362;7.568;2023-11-18T12:31:01;14.00;64.90
51476;DHT22;37554;50.362;7.568;2023-11-18T12:42:02;14.00;64.90
51476;DHT22;37554;50.362;7.568;2023-11-18T12:44:37;14.00;65.10
51476;DHT22;37554;50.362;7.568;2023-11-18T12:47:05;14.10;65.20
51476;DHT22;37554;50.362;7.568;2023-11-18T12:49:43;14.10;65.20
51476;DHT22;37554;50.362;7.568;2023-11-18T12:52:11;14.10;65.10
51476;DHT22;37554;50.362;7.568;2023-11-18T12:54:40;14.10;65.10
51476;DHT22;37554;50.362;7.568;2023-11-18T12:57:12;14.10;65.10
51476;DHT22;37554;50.362;7.568;2023-11-18T12:59:42;14.10;65.10
51476;DHT22;37554;50.362;7.568;2023-11-18T13:02:08;14.10;65.10
51476;DHT22;37554;50.362;7.568;2023-11-18T13:04:42;14.10;65.10
51476;DHT22;37554;50.362;7.568;2023-11-18T13:07:08;14.10;65.10
51476;DHT22;37554;50.362;7.568;2023-11-18T13:09:38;14.10;65.20
51476;DHT22;37554;50.362;7.568;2023-11-18T13:12:06;14.10;65.10
51476;DHT22;37554;50.362;7.568;2023-11-18T13:14:35;14.00;64.80
51476;DHT22;37554;50.362;7.568;2023-11-18T13:17:09;13.70;64.80
51476;DHT22;37554;50.362;7.568;2023-11-18T13:19:37;13.50;65.50
51476;DHT22;37554;50.362;7.568;2023-11-18T13:22:04;13.40;66.00
51476;DHT22;37554;50.362;7.568;2023-11-18T13:24:34;13.30;66.50
51476;DHT22;37554;50.362;7.568;2023-11-18T13:27:00;13.40;66.50
51476;DHT22;37554;50.362;7.568;2023-11-18T13:29:30;13.50;66.50
51476;DHT22;37554;50.362;7.568;2023-11-18T13:31:57;13.60;66.40
51476;DHT22;37554;50.362;7.568;2023-11-18T13:34:28;13.70;66.30
51476;DHT22;37554;50.362;7.568;2023-11-18T13:36:58;13.70;66.20
51476;DHT22;37554;50.362;7.568;2023-11-18T13:39:24;13.80;66.10
51476;DHT22;37554;50.362;7.568;2023-11-18T13:41:53;13.80;66.00
51476;DHT22;37554;50.362;7.568;2023-11-18T13:44:35;13.90;66.70
51476;DHT22;37554;50.362;7.568;2023-11-18T13:47:05;13.90;66.00
51476;DHT22;37554;50.362;7.568;2023-11-18T13:49:34;13.90;65.90
51476;DHT22;37554;50.362;7.568;2023-11-18T13:52:00;13.90;66.60
51476;DHT22;37554;50.362;7.568;2023-11-18T13:54:29;13.90;65.90
51476;DHT22;37554;50.362;7.568;2023-11-18T13:56:56;13.90;65.90
51476;DHT22;37554;50.362;7.568;2023-11-18T13:59:25;13.90;65.90
51476;DHT22;37554;50.362;7.568;2023-11-18T14:01:55;13.90;66.60
51476;DHT22;37554;50.362;7.568;2023-11-18T14:04:24;13.90;65.90
51476;DHT22;37554;50.362;7.568;2023-11-18T14:06:57;13.90;66.00
51476;DHT22;37554;50.362;7.568;2023-11-18T14:09:22;13.90;66.00
51476;DHT22;37554;50.362;7.568;2023-11-18T14:11:51;13.90;66.00
51476;DHT22;37554;50.362;7.568;2023-11-18T14:14:17;13.90;66.00
51476;DHT22;37554;50.362;7.568;2023-11-18T14:16:43;13.90;66.10
51476;DHT22;37554;50.362;7.568;2023-11-18T14:19:09;13.90;66.10
51476;DHT22;37554;50.362;7.568;2023-11-18T14:21:36;13.90;66.20
51476;DHT22;37554;50.362;7.568;2023-11-18T14:24:02;13.90;66.20
51476;DHT22;37554;50.362;7.568;2023-11-18T14:26:28;13.90;66.30
51476;DHT22;37554;50.362;7.568;2023-11-18T14:28:56;13.90;66.30
51476;DHT22;37554;50.362;7.568;2023-11-18T14:31:22;13.90;66.30
51476;DHT22;37554;50.362;7.568;2023-11-18T14:33:48;13.90;66.40
51476;DHT22;37554;50.362;7.568;2023-11-18T14:36:14;13.90;66.50
51476;DHT22;37554;50.362;7.568;2023-11-18T14:38:40;13.80;66.50
51476;DHT22;37554;50.362;7.568;2023-11-18T14:41:06;13.80;66.50
51476;DHT22;37554;50.362;7.568;2023-11-18T14:43:33;13.80;66.50
51476;DHT22;37554;50.362;7.568;2023-11-18T14:46:00;13.80;66.60
51476;DHT22;37554;50.362;7.568;2023-11-18T14:48:26;13.80;66.70
51476;DHT22;37554;50.362;7.568;2023-11-18T14:50:52;13.80;66.80
51476;DHT22;37554;50.362;7.568;2023-11-18T14:53:17;13.80;66.90
51476;DHT22;37554;50.362;7.568;2023-11-18T14:55:46;13.80;66.90
51476;DHT22;37554;50.362;7.568;2023-11-18T14:58:11;13.80;67.00
51476;DHT22;37554;50.362;7.568;2023-11-18T15:00:37;13.80;67.00
51476;DHT22;37554;50.362;7.568;2023-11-18T15:03:03;13.80;67.10
51476;DHT22;37554;50.362;7.568;2023-11-18T15:05:28;13.70;67.10
51476;DHT22;37554;50.362;7.568;2023-11-18T15:07:56;13.70;67.20
51476;DHT22;37554;50.362;7.568;2023-11-18T15:10:25;13.70;67.20
51476;DHT22;37554;50.362;7.568;2023-11-18T15:12:52;13.70;67.20
51476;DHT22;37554;50.362;7.568;2023-11-18T15:15:27;13.70;67.30
51476;DHT22;37554;50.362;7.568;2023-11-18T15:18:05;13.70;67.30
51476;DHT22;37554;50.362;7.568;2023-11-18T15:20:34;13.70;67.40
51476;DHT22;37554;50.362;7.568;2023-11-18T15:23:00;13.70;67.60
51476;DHT22;37554;50.362;7.568;2023-11-18T15:25:26;13.70;67.60
51476;DHT22;37554;50.362;7.568;2023-11-18T15:27:52;13.60;67.60
51476;DHT22;37554;50.362;7.568;2023-11-18T15:30:23;13.60;67.70
51476;DHT22;37554;50.362;7.568;2023-11-18T15:32:53;13.60;67.70
51476;DHT22;37554;50.362;7.568;2023-11-18T15:35:19;13.60;67.90
51476;DHT22;37554;50.362;7.568;2023-11-18T15:37:47;13.60;67.90
51476;DHT22;37554;50.362;7.568;2023-11-18T15:40:17;13.60;68.00
51476;DHT22;37554;50.362;7.568;2023-11-18T15:42:50;13.50;68.00
51476;DHT22;37554;50.362;7.568;2023-11-18T15:45:21;13.50;68.00
51476;DHT22;37554;50.362;7.568;2023-11-18T15:47:48;13.50;68.10
51476;DHT22;37554;50.362;7.568;2023-11-18T15:50:15;13.50;68.10
51476;DHT22;37554;50.362;7.568;2023-11-18T15:53:01;13.50;68.20
51476;DHT22;37554;50.362;7.568;2023-11-18T15:55:27;13.50;68.50
51476;DHT22;37554;50.362;7.568;2023-11-18T15:57:53;13.40;68.40
51476;DHT22;37554;50.362;7.568;2023-11-18T16:00:24;13.40;68.40
51476;DHT22;37554;50.362;7.568;2023-11-18T16:02:57;13.40;68.40
51476;DHT22;37554;50.362;7.568;2023-11-18T16:05:25;13.40;68.50
51476;DHT22;37554;50.362;7.568;2023-11-18T16:07:52;13.40;68.50
51476;DHT22;37554;50.362;7.568;2023-11-18T16:10:22;13.40;68.60
51476;DHT22;37554;50.362;7.568;2023-11-18T16:12:52;13.40;68.60